createdAt,value
2023-09-19T00:01:00.875Z,9.40
2023-09-19T00:02:05.978Z,10.43
2023-09-19T00:03:07.918Z,10.43
2023-09-19T00:04:11.043Z,11.25
2023-09-19T00:05:13.414Z,11.73
2023-09-19T00:06:15.629Z,13.07
2023-09-19T00:07:17.556Z,11.25
2023-09-19T00:08:23.442Z,12.82
2023-09-19T00:09:28.414Z,11.23
2023-09-19T00:10:32.260Z,11.98
2023-09-19T00:11:36.103Z,11.82
2023-09-19T00:12:37.751Z,12.38
2023-09-19T00:13:39.561Z,12.80
2023-09-19T00:14:41.463Z,14.67
2023-09-19T00:15:49.801Z,13.13
2023-09-19T00:16:52.341Z,13.83
2023-09-19T00:17:53.947Z,12.43
2023-09-19T00:18:56.251Z,14.32
2023-09-19T00:19:57.869Z,14.20
2023-09-19T00:21:00.121Z,11.68
2023-09-19T00:22:02.445Z,14.23
2023-09-19T00:23:10.578Z,15.07
2023-09-19T00:24:13.091Z,15.40
2023-09-19T00:25:16.777Z,13.10
2023-09-19T00:26:19.787Z,13.40
2023-09-19T00:27:21.383Z,12.95
2023-09-19T00:28:23.018Z,12.10
2023-09-19T00:29:24.727Z,12.68
2023-09-19T00:30:26.308Z,12.70
2023-09-19T00:31:27.971Z,13.73
2023-09-19T00:32:33.259Z,12.90
2023-09-19T00:33:35.661Z,14.02
2023-09-19T00:34:37.280Z,15.68
2023-09-19T00:35:38.904Z,14.40
2023-09-19T00:36:40.741Z,11.88
2023-09-19T00:37:43.410Z,11.25
2023-09-19T00:38:46.814Z,13.50
2023-09-19T00:39:48.388Z,11.70
2023-09-19T00:40:53.822Z,13.10
2023-09-19T00:41:55.893Z,12.13
2023-09-19T00:43:01.381Z,12.85
2023-09-19T00:44:05.091Z,14.93
2023-09-19T00:45:10.301Z,13.38
2023-09-19T00:46:12.021Z,11.60
2023-09-19T00:47:18.608Z,14.75
2023-09-19T00:48:22.206Z,11.80
2023-09-19T00:49:23.950Z,10.98
2023-09-19T00:50:28.081Z,11.60
2023-09-19T00:51:30.975Z,13.10
2023-09-19T00:52:33.425Z,13.00
2023-09-19T00:53:35.533Z,11.27
2023-09-19T00:54:37.385Z,12.93
2023-09-19T00:55:39.081Z,14.88
2023-09-19T00:56:41.875Z,17.80
2023-09-19T00:57:44.896Z,15.73
2023-09-19T00:58:47.542Z,12.38
2023-09-19T00:59:54.999Z,13.82
2023-09-19T01:00:57.113Z,13.40
2023-09-19T01:02:01.455Z,14.27
2023-09-19T01:03:04.104Z,14.70
2023-09-19T01:04:06.775Z,14.13
2023-09-19T01:05:08.642Z,15.23
2023-09-19T01:06:10.289Z,14.63
2023-09-19T01:07:12.356Z,11.32
2023-09-19T01:08:13.937Z,12.37
2023-09-19T01:09:15.512Z,11.33
2023-09-19T01:10:23.299Z,12.17
2023-09-19T01:11:42.330Z,13.77
2023-09-19T01:12:53.129Z,11.10
2023-09-19T01:14:16.412Z,15.65
2023-09-19T01:15:45.838Z,12.03
2023-09-19T01:17:23.389Z,11.47
2023-09-19T01:18:56.824Z,11.60
2023-09-19T01:20:21.917Z,13.85
2023-09-19T01:21:31.936Z,11.68
2023-09-19T01:22:48.302Z,15.30
2023-09-19T01:24:11.639Z,12.02
2023-09-19T01:25:25.285Z,12.68
2023-09-19T01:26:45.008Z,13.32
2023-09-19T01:28:11.676Z,14.88
2023-09-19T01:29:40.419Z,11.70
2023-09-19T01:30:45.129Z,12.13
2023-09-19T01:31:48.483Z,11.93
2023-09-19T01:32:53.726Z,12.77
2023-09-19T01:34:05.293Z,12.73
2023-09-19T01:35:07.376Z,11.38
2023-09-19T01:36:10.294Z,12.40
2023-09-19T01:37:11.954Z,13.37
2023-09-19T01:38:14.887Z,16.13
2023-09-19T01:39:16.808Z,10.98
2023-09-19T01:40:22.006Z,11.95
2023-09-19T01:41:36.795Z,13.45
2023-09-19T01:42:41.114Z,15.00
2023-09-19T01:43:44.781Z,11.82
2023-09-19T01:44:49.331Z,12.77
2023-09-19T01:46:14.705Z,12.15
2023-09-19T01:47:39.230Z,12.65
2023-09-19T01:48:51.640Z,12.02
2023-09-19T01:50:08.048Z,16.55
2023-09-19T01:51:17.998Z,13.23
2023-09-19T01:52:23.144Z,11.57
2023-09-19T01:53:32.199Z,13.45
2023-09-19T01:54:49.418Z,12.23
2023-09-19T01:55:52.845Z,15.05
2023-09-19T01:57:15.635Z,13.90
2023-09-19T01:58:31.061Z,12.63
2023-09-19T01:59:55.472Z,12.48
2023-09-19T02:00:59.688Z,13.57
2023-09-19T02:02:03.410Z,12.63
2023-09-19T02:03:05.588Z,12.43
2023-09-19T02:04:08.641Z,11.60
2023-09-19T02:05:11.029Z,12.82
2023-09-19T02:06:16.949Z,12.13
2023-09-19T02:07:18.693Z,14.98
2023-09-19T02:08:21.697Z,12.02
2023-09-19T02:09:23.258Z,11.63
2023-09-19T02:10:24.973Z,11.40
2023-09-19T02:11:26.598Z,12.80
2023-09-19T02:12:28.695Z,15.00
2023-09-19T02:13:32.018Z,12.23
2023-09-19T02:14:33.893Z,13.13
2023-09-19T02:15:37.064Z,10.25
2023-09-19T02:16:38.719Z,11.25
2023-09-19T02:17:40.918Z,9.88
2023-09-19T02:18:42.552Z,12.95
2023-09-19T02:19:44.152Z,10.05
2023-09-19T02:20:46.937Z,13.82
2023-09-19T02:21:49.854Z,10.60
2023-09-19T02:22:51.611Z,9.07
2023-09-19T02:23:53.323Z,9.90
2023-09-19T02:24:54.939Z,11.50
2023-09-19T02:26:01.579Z,10.20
2023-09-19T02:27:04.880Z,9.80
2023-09-19T02:28:06.762Z,9.60
2023-09-19T02:29:08.509Z,9.82
2023-09-19T02:30:10.559Z,11.32
2023-09-19T02:31:12.546Z,10.20
2023-09-19T02:32:14.291Z,11.23
2023-09-19T02:33:16.188Z,11.43
2023-09-19T02:34:17.932Z,14.27
2023-09-19T02:35:20.894Z,11.50
2023-09-19T02:36:22.617Z,13.80
2023-09-19T02:37:24.267Z,11.63
2023-09-19T02:38:27.089Z,10.57
2023-09-19T02:39:29.832Z,14.65
2023-09-19T02:40:31.427Z,11.02
2023-09-19T02:41:34.130Z,11.23
2023-09-19T02:42:35.726Z,11.77
2023-09-19T02:43:37.698Z,11.15
2023-09-19T02:44:39.390Z,12.32
2023-09-19T02:45:40.945Z,11.60
2023-09-19T02:46:43.450Z,12.10
2023-09-19T02:47:48.731Z,12.20
2023-09-19T02:48:50.436Z,12.88
2023-09-19T02:49:52.033Z,12.10
2023-09-19T02:50:53.704Z,12.85
2023-09-19T02:51:55.781Z,11.35
2023-09-19T02:52:57.416Z,11.73
2023-09-19T02:54:00.849Z,11.88
2023-09-19T02:55:02.662Z,12.43
2023-09-19T02:56:05.278Z,11.48
2023-09-19T02:57:07.836Z,11.93
2023-09-19T02:58:12.071Z,11.90
2023-09-19T02:59:14.027Z,11.48
2023-09-19T03:00:17.246Z,10.02
2023-09-19T03:01:19.762Z,11.93
2023-09-19T03:02:23.009Z,13.60
2023-09-19T03:03:24.662Z,12.18
2023-09-19T03:04:28.044Z,13.18
2023-09-19T03:05:32.877Z,13.15
2023-09-19T03:06:34.433Z,12.77
2023-09-19T03:07:36.144Z,12.25
2023-09-19T03:08:41.072Z,13.07
2023-09-19T03:09:43.661Z,15.65
2023-09-19T03:10:47.831Z,12.38
2023-09-19T03:11:49.480Z,12.02
2023-09-19T03:12:51.662Z,13.73
2023-09-19T03:13:54.086Z,12.90
2023-09-19T03:14:56.608Z,14.30
2023-09-19T03:15:59.445Z,14.32
2023-09-19T03:17:01.155Z,12.87
2023-09-19T03:18:02.925Z,13.10
2023-09-19T03:19:04.652Z,13.23
2023-09-19T03:20:09.654Z,14.13
2023-09-19T03:21:12.330Z,13.90
2023-09-19T03:22:15.995Z,14.80
2023-09-19T03:23:18.500Z,14.27
2023-09-19T03:24:20.856Z,16.57
2023-09-19T03:25:23.989Z,16.50
2023-09-19T03:26:27.509Z,15.50
2023-09-19T03:27:29.198Z,15.63
2023-09-19T03:28:30.869Z,13.57
2023-09-19T03:29:35.227Z,16.13
2023-09-19T03:30:37.245Z,13.03
2023-09-19T03:31:39.276Z,12.83
2023-09-19T03:32:51.383Z,16.20
2023-09-19T03:33:53.424Z,14.37
2023-09-19T03:34:55.561Z,12.67
2023-09-19T03:35:59.477Z,15.30
2023-09-19T03:37:01.112Z,14.97
2023-09-19T03:38:02.749Z,13.00
2023-09-19T03:39:06.273Z,13.13
2023-09-19T03:40:09.280Z,12.70
2023-09-19T03:41:10.880Z,14.98
2023-09-19T03:42:12.827Z,15.43
2023-09-19T03:43:14.447Z,12.67
2023-09-19T03:44:16.364Z,13.43
2023-09-19T03:45:19.434Z,13.17
2023-09-19T03:46:21.132Z,12.73
2023-09-19T03:47:22.932Z,13.57
2023-09-19T03:48:24.716Z,14.40
2023-09-19T03:49:26.383Z,12.23
2023-09-19T03:50:27.917Z,13.83
2023-09-19T03:51:29.549Z,14.20
2023-09-19T03:52:31.182Z,15.13
2023-09-19T03:53:32.848Z,13.13
2023-09-19T03:54:34.461Z,12.70
2023-09-19T03:55:39.994Z,14.77
2023-09-19T03:56:41.905Z,13.00
2023-09-19T03:57:43.506Z,14.27
2023-09-19T03:58:45.844Z,14.77
2023-09-19T03:59:48.411Z,14.57
2023-09-19T04:00:51.529Z,15.07
2023-09-19T04:01:57.175Z,15.47
2023-09-19T04:02:58.899Z,16.37
2023-09-19T04:04:09.055Z,17.27
2023-09-19T04:05:11.998Z,16.33
2023-09-19T04:06:17.335Z,15.07
2023-09-19T04:07:23.813Z,15.47
2023-09-19T04:08:25.597Z,15.13
2023-09-19T04:09:27.233Z,14.13
2023-09-19T04:10:29.609Z,16.67
2023-09-19T04:11:32.229Z,16.70
2023-09-19T04:12:34.015Z,16.50
2023-09-19T04:13:35.953Z,17.70
2023-09-19T04:14:37.588Z,16.50
2023-09-19T04:15:39.196Z,19.27
2023-09-19T04:16:40.897Z,15.63
2023-09-19T04:17:42.605Z,15.33
2023-09-19T04:18:44.382Z,17.23
2023-09-19T04:19:46.925Z,16.47
2023-09-19T04:20:50.649Z,13.17
2023-09-19T04:21:52.219Z,14.57
2023-09-19T04:22:53.941Z,16.47
2023-09-19T04:23:55.598Z,14.43
2023-09-19T04:24:57.836Z,13.87
2023-09-19T04:25:59.888Z,13.37
2023-09-19T04:27:01.494Z,13.33
2023-09-19T04:28:05.559Z,14.63
2023-09-19T04:29:07.712Z,18.10
2023-09-19T04:30:12.949Z,16.60
2023-09-19T04:31:15.785Z,15.37
2023-09-19T04:32:18.762Z,17.83
2023-09-19T04:33:20.500Z,16.93
2023-09-19T04:34:22.130Z,17.07
2023-09-19T04:35:23.799Z,13.53
2023-09-19T04:36:35.110Z,16.97
2023-09-19T04:37:40.044Z,14.80
2023-09-19T04:38:41.886Z,13.73
2023-09-19T04:39:43.654Z,13.47
2023-09-19T04:40:45.253Z,14.73
2023-09-19T04:41:49.164Z,21.17
2023-09-19T04:43:00.896Z,17.30
2023-09-19T04:44:02.547Z,14.73
2023-09-19T04:45:04.658Z,17.63
2023-09-19T04:46:08.102Z,14.87
2023-09-19T04:47:09.846Z,15.57
2023-09-19T04:48:12.037Z,16.30
2023-09-19T04:49:14.035Z,13.33
2023-09-19T04:50:15.962Z,16.13
2023-09-19T04:51:17.615Z,15.37
2023-09-19T04:52:20.246Z,18.63
2023-09-19T04:53:22.622Z,16.60
2023-09-19T04:54:24.218Z,16.80
2023-09-19T04:55:25.858Z,15.77
2023-09-19T04:56:29.629Z,16.57
2023-09-19T04:57:32.586Z,17.27
2023-09-19T04:58:35.118Z,18.50
2023-09-19T04:59:37.464Z,13.70
2023-09-19T05:00:39.018Z,15.73
2023-09-19T05:01:40.710Z,16.73
2023-09-19T05:02:43.485Z,14.80
2023-09-19T05:03:46.381Z,16.70
2023-09-19T05:04:48.448Z,13.63
2023-09-19T05:05:50.087Z,13.97
2023-09-19T05:06:52.018Z,14.67
2023-09-19T05:07:55.421Z,14.90
2023-09-19T05:08:57.349Z,15.20
2023-09-19T05:09:58.875Z,13.77
2023-09-19T05:11:03.509Z,17.37
2023-09-19T05:12:06.050Z,17.93
2023-09-19T05:13:08.937Z,18.47
2023-09-19T05:14:10.517Z,17.35
2023-09-19T05:15:12.459Z,14.27
2023-09-19T05:16:14.732Z,13.70
2023-09-19T05:17:18.279Z,14.67
2023-09-19T05:18:20.023Z,15.47
2023-09-19T05:19:21.622Z,15.67
2023-09-19T05:20:34.581Z,21.20
2023-09-19T05:21:36.149Z,16.07
2023-09-19T05:22:40.875Z,15.90
2023-09-19T05:23:43.426Z,14.90
2023-09-19T05:24:49.177Z,18.13
2023-09-19T05:25:52.365Z,18.07
2023-09-19T05:26:54.060Z,13.53
2023-09-19T05:27:56.048Z,17.37
2023-09-19T05:28:57.952Z,18.75
2023-09-19T05:29:59.522Z,17.83
2023-09-19T05:31:04.210Z,17.43
2023-09-19T05:32:07.924Z,18.83
2023-09-19T05:33:10.103Z,16.73
2023-09-19T05:34:12.272Z,18.53
2023-09-19T05:35:14.358Z,18.23
2023-09-19T05:36:18.073Z,18.10
2023-09-19T05:37:19.965Z,19.07
2023-09-19T05:38:21.979Z,17.70
2023-09-19T05:39:24.025Z,17.97
2023-09-19T05:40:26.642Z,14.93
2023-09-19T05:41:28.324Z,16.23
2023-09-19T05:42:29.857Z,20.37
2023-09-19T05:43:31.655Z,14.73
2023-09-19T05:44:34.592Z,16.93
2023-09-19T05:45:37.726Z,18.73
2023-09-19T05:46:40.031Z,19.33
2023-09-19T05:47:46.878Z,14.70
2023-09-19T05:48:48.905Z,17.47
2023-09-19T05:49:51.922Z,16.03
2023-09-19T05:50:53.563Z,22.03
2023-09-19T05:51:57.367Z,18.03
2023-09-19T05:52:59.300Z,19.33
2023-09-19T05:54:00.879Z,18.77
2023-09-19T05:55:02.502Z,21.27
2023-09-19T05:56:04.191Z,16.43
2023-09-19T05:57:05.840Z,19.67
2023-09-19T05:58:07.612Z,21.43
2023-09-19T05:59:10.014Z,20.80
2023-09-19T06:00:12.517Z,17.70
2023-09-19T06:01:14.428Z,19.37
2023-09-19T06:02:16.462Z,17.90
2023-09-19T06:03:20.163Z,19.40
2023-09-19T06:04:22.631Z,17.47
2023-09-19T06:05:25.790Z,18.93
2023-09-19T06:06:27.568Z,22.60
2023-09-19T06:07:37.392Z,20.97
2023-09-19T06:08:38.989Z,19.27
2023-09-19T06:09:40.574Z,16.33
2023-09-19T06:10:42.167Z,19.30
2023-09-19T06:11:44.227Z,22.70
2023-09-19T06:12:46.300Z,20.67
2023-09-19T06:13:48.680Z,25.00
2023-09-19T06:14:50.470Z,22.50
2023-09-19T06:15:52.669Z,19.80
2023-09-19T06:16:55.471Z,21.60
2023-09-19T06:17:57.927Z,19.63
2023-09-19T06:19:02.616Z,15.73
2023-09-19T06:20:10.983Z,20.60
2023-09-19T06:21:13.299Z,17.80
2023-09-19T06:22:19.919Z,18.48
2023-09-19T06:23:22.365Z,20.43
2023-09-19T06:24:24.016Z,19.40
2023-09-19T06:25:25.709Z,19.33
2023-09-19T06:26:28.252Z,20.15
2023-09-19T06:27:30.409Z,18.00
2023-09-19T06:28:32.148Z,17.57
2023-09-19T06:29:35.153Z,20.60
2023-09-19T06:30:37.230Z,18.35
2023-09-19T06:31:40.588Z,14.80
2023-09-19T06:32:45.692Z,15.40
2023-09-19T06:33:47.321Z,18.40
2023-09-19T06:34:55.564Z,20.95
2023-09-19T06:36:00.443Z,15.00
2023-09-19T06:37:02.268Z,17.95
2023-09-19T06:38:05.190Z,13.82
2023-09-19T06:39:07.544Z,14.65
2023-09-19T06:40:18.551Z,15.23
2023-09-19T06:41:20.585Z,13.57
2023-09-19T06:42:23.901Z,16.02
2023-09-19T06:43:25.649Z,16.10
2023-09-19T06:44:27.238Z,14.38
2023-09-19T06:45:29.068Z,10.13
2023-09-19T06:46:34.168Z,9.77
2023-09-19T06:47:35.840Z,11.23
2023-09-19T06:48:38.131Z,14.45
2023-09-19T06:49:39.726Z,13.48
2023-09-19T06:50:42.417Z,15.55
2023-09-19T06:51:44.991Z,11.55
2023-09-19T06:52:49.174Z,18.33
2023-09-19T06:53:50.895Z,12.90
2023-09-19T06:54:53.651Z,14.43
2023-09-19T06:55:55.538Z,14.68
2023-09-19T06:56:57.254Z,12.40
2023-09-19T06:57:59.874Z,16.65
2023-09-19T06:59:03.463Z,13.45
2023-09-19T07:00:10.581Z,10.98
2023-09-19T07:01:12.178Z,16.42
2023-09-19T07:02:15.005Z,14.13
2023-09-19T07:03:19.963Z,14.20
2023-09-19T07:04:21.795Z,15.73
2023-09-19T07:05:23.524Z,14.90
2023-09-19T07:06:25.440Z,12.00
2023-09-19T07:07:27.150Z,14.85
2023-09-19T07:08:29.382Z,13.90
2023-09-19T07:09:30.974Z,12.98
2023-09-19T07:10:33.552Z,12.90
2023-09-19T07:11:35.881Z,18.02
2023-09-19T07:12:37.657Z,13.07
2023-09-19T07:13:40.676Z,12.80
2023-09-19T07:14:42.390Z,11.68
2023-09-19T07:15:48.535Z,13.73
2023-09-19T07:16:50.565Z,12.38
2023-09-19T07:17:57.419Z,10.70
2023-09-19T07:18:59.512Z,12.32
2023-09-19T07:20:01.292Z,12.88
2023-09-19T07:21:05.808Z,10.32
2023-09-19T07:22:09.058Z,12.73
2023-09-19T07:23:10.678Z,15.00
2023-09-19T07:24:12.290Z,11.43
2023-09-19T07:25:15.197Z,9.63
2023-09-19T07:26:17.482Z,13.43
2023-09-19T07:27:19.494Z,13.00
2023-09-19T07:28:21.187Z,28.42
2023-09-19T07:29:22.888Z,14.30
2023-09-19T07:30:24.544Z,13.68
2023-09-19T07:31:26.528Z,12.75
2023-09-19T07:32:28.347Z,9.07
2023-09-19T07:33:30.111Z,12.80
2023-09-19T07:34:31.651Z,15.65
2023-09-19T07:35:34.076Z,15.73
2023-09-19T07:36:38.339Z,12.98
2023-09-19T07:37:40.074Z,12.60
2023-09-19T07:38:42.174Z,13.48
2023-09-19T07:39:45.961Z,10.88
2023-09-19T07:40:47.974Z,13.98
2023-09-19T07:41:50.837Z,17.27
2023-09-19T07:42:53.328Z,14.38
2023-09-19T07:43:54.985Z,13.30
2023-09-19T07:44:56.566Z,10.05
2023-09-19T07:45:58.611Z,13.18
2023-09-19T07:47:00.256Z,27.67
2023-09-19T07:48:05.364Z,14.30
2023-09-19T07:49:07.272Z,18.38
2023-09-19T07:50:09.047Z,17.20
2023-09-19T07:51:10.676Z,13.25
2023-09-19T07:52:13.322Z,19.10
2023-09-19T07:53:14.951Z,23.80
2023-09-19T07:54:17.661Z,20.17
2023-09-19T07:55:21.173Z,13.43
2023-09-19T07:56:23.826Z,17.23
2023-09-19T07:57:26.076Z,11.13
2023-09-19T07:58:27.751Z,11.43
2023-09-19T07:59:29.425Z,15.30
2023-09-19T08:00:31.357Z,10.68
2023-09-19T08:01:34.212Z,12.85
2023-09-19T08:02:39.413Z,14.40
2023-09-19T08:03:45.082Z,11.82
2023-09-19T08:04:47.087Z,15.90
2023-09-19T08:05:49.704Z,10.10
2023-09-19T08:06:53.119Z,10.93
2023-09-19T08:07:57.667Z,13.27
2023-09-19T08:09:01.878Z,13.77
2023-09-19T08:10:14.536Z,11.32
2023-09-19T08:11:22.281Z,10.48
2023-09-19T08:12:24.036Z,14.73
2023-09-19T08:13:26.905Z,12.02
2023-09-19T08:14:28.454Z,13.15
2023-09-19T08:15:30.047Z,9.60
2023-09-19T08:16:31.760Z,13.05
2023-09-19T08:17:36.683Z,11.88
2023-09-19T08:18:41.561Z,12.55
2023-09-19T08:19:45.943Z,12.10
2023-09-19T08:20:53.518Z,11.75
2023-09-19T08:22:02.447Z,14.23
2023-09-19T08:23:04.916Z,13.80
2023-09-19T08:24:07.131Z,13.40
2023-09-19T08:25:08.764Z,15.80
2023-09-19T08:26:10.366Z,10.82
2023-09-19T08:27:13.571Z,10.48
2023-09-19T08:28:19.953Z,11.93
2023-09-19T08:29:21.741Z,9.00
2023-09-19T08:30:28.571Z,9.77
2023-09-19T08:31:30.862Z,18.83
2023-09-19T08:32:32.659Z,12.27
2023-09-19T08:33:37.058Z,10.40
2023-09-19T08:34:39.950Z,9.05
2023-09-19T08:35:44.040Z,10.02
2023-09-19T08:36:46.546Z,10.57
2023-09-19T08:37:48.284Z,10.15
2023-09-19T08:38:50.700Z,13.20
2023-09-19T08:39:52.351Z,11.32
2023-09-19T08:40:53.989Z,10.52
2023-09-19T08:42:00.272Z,9.50
2023-09-19T08:43:01.978Z,9.43
2023-09-19T08:44:05.424Z,9.80
2023-09-19T08:45:09.521Z,11.70
2023-09-19T08:46:20.256Z,10.55
2023-09-19T08:47:36.623Z,10.18
2023-09-19T08:48:45.487Z,9.77
2023-09-19T08:49:59.426Z,11.82
2023-09-19T08:51:20.147Z,13.23
2023-09-19T08:52:27.491Z,12.35
2023-09-19T08:53:33.104Z,9.60
2023-09-19T08:54:42.031Z,10.07
2023-09-19T08:55:45.392Z,8.73
2023-09-19T08:56:49.010Z,9.85
2023-09-19T08:57:53.540Z,10.30
2023-09-19T08:59:00.582Z,9.25
2023-09-19T09:00:06.592Z,11.07
2023-09-19T09:01:09.970Z,9.57
2023-09-19T09:02:13.590Z,10.70
2023-09-19T09:03:16.206Z,11.65
2023-09-19T09:04:17.916Z,12.32
2023-09-19T09:05:24.256Z,12.30
2023-09-19T09:06:29.223Z,8.70
2023-09-19T09:07:31.147Z,10.50
2023-09-19T09:08:33.160Z,7.88
2023-09-19T09:09:35.316Z,9.00
2023-09-19T09:10:37.510Z,11.20
2023-09-19T09:11:41.070Z,8.93
2023-09-19T09:12:45.070Z,9.57
2023-09-19T09:13:47.263Z,10.43
2023-09-19T09:14:53.498Z,8.35
2023-09-19T09:15:55.683Z,8.63
2023-09-19T09:17:00.078Z,7.97
2023-09-19T09:18:01.840Z,8.50
2023-09-19T09:19:03.524Z,9.63
2023-09-19T09:20:11.057Z,11.30
2023-09-19T09:21:15.765Z,10.32
2023-09-19T09:22:17.822Z,9.82
2023-09-19T09:23:19.762Z,11.77
2023-09-19T09:24:34.771Z,10.00
2023-09-19T09:25:56.288Z,8.70
2023-09-19T09:26:59.196Z,12.10
2023-09-19T09:28:02.696Z,8.85
2023-09-19T09:29:04.665Z,10.63
2023-09-19T09:30:08.333Z,12.77
2023-09-19T09:31:24.028Z,9.52
2023-09-19T09:32:38.825Z,8.95
2023-09-19T09:33:42.887Z,9.32
2023-09-19T09:34:45.255Z,14.45
2023-09-19T09:35:59.167Z,9.73
2023-09-19T09:37:01.050Z,9.13
2023-09-19T09:38:09.410Z,10.35
2023-09-19T09:39:25.798Z,11.13
2023-09-19T09:40:48.383Z,14.90
2023-09-19T09:41:50.052Z,11.27
2023-09-19T09:42:54.333Z,12.52
2023-09-19T09:43:55.963Z,9.20
2023-09-19T09:45:14.007Z,10.90
2023-09-19T09:46:23.596Z,11.48
2023-09-19T09:47:51.297Z,10.30
2023-09-19T09:49:15.598Z,11.65
2023-09-19T09:50:56.718Z,11.10
2023-09-19T09:52:11.987Z,11.35
2023-09-19T09:53:28.655Z,14.75
2023-09-19T09:54:42.848Z,12.98
2023-09-19T09:56:03.208Z,10.45
2023-09-19T09:57:22.638Z,11.82
2023-09-19T09:58:30.075Z,9.52
2023-09-19T09:59:52.252Z,15.35
2023-09-19T10:01:03.935Z,11.10
2023-09-19T10:02:05.794Z,15.00
2023-09-19T10:03:23.059Z,10.65
2023-09-19T10:04:37.587Z,11.93
2023-09-19T10:05:45.832Z,13.60
2023-09-19T10:06:52.559Z,13.68
2023-09-19T10:07:55.787Z,9.80
2023-09-19T10:09:21.809Z,14.82
2023-09-19T10:10:44.068Z,13.32
2023-09-19T10:11:49.179Z,13.07
2023-09-19T10:12:57.306Z,21.52
2023-09-19T10:14:07.761Z,14.65
2023-09-19T10:15:12.259Z,13.00
2023-09-19T10:16:15.664Z,10.68
2023-09-19T10:17:21.515Z,9.98
2023-09-19T10:18:25.132Z,10.85
2023-09-19T10:19:59.233Z,11.80
2023-09-19T10:21:05.166Z,10.40
2023-09-19T10:22:10.070Z,16.23
2023-09-19T10:23:13.663Z,11.07
2023-09-19T10:24:17.330Z,12.02
2023-09-19T10:25:23.781Z,8.52
2023-09-19T10:26:27.168Z,10.55
2023-09-19T10:27:30.870Z,11.48
2023-09-19T10:28:33.546Z,10.07
2023-09-19T10:29:37.388Z,9.25
2023-09-19T10:30:44.782Z,10.27
2023-09-19T10:31:49.196Z,15.88
2023-09-19T10:33:18.011Z,12.23
2023-09-19T10:34:21.696Z,9.25
2023-09-19T10:35:25.135Z,9.65
2023-09-19T10:36:28.854Z,11.18
2023-09-19T10:37:33.635Z,13.10
2023-09-19T10:38:36.874Z,11.25
2023-09-19T10:39:42.084Z,10.63
2023-09-19T10:40:45.332Z,10.85
2023-09-19T10:41:59.852Z,12.77
2023-09-19T10:43:09.238Z,13.23
2023-09-19T10:44:10.990Z,12.07
2023-09-19T10:45:16.670Z,11.60
2023-09-19T10:46:18.855Z,9.40
2023-09-19T10:47:21.693Z,9.95
2023-09-19T10:48:37.609Z,9.55
2023-09-19T10:49:49.773Z,8.60
2023-09-19T10:51:14.358Z,9.70
2023-09-19T10:52:22.145Z,8.40
2023-09-19T10:53:24.400Z,10.00
2023-09-19T10:54:29.394Z,8.07
2023-09-19T10:55:32.760Z,10.85
2023-09-19T10:56:38.699Z,10.38
2023-09-19T10:57:45.836Z,10.50
2023-09-19T10:58:47.652Z,13.27
2023-09-19T11:00:27.115Z,9.70
2023-09-19T11:01:42.902Z,10.40
2023-09-19T11:02:45.074Z,9.07
2023-09-19T11:03:50.763Z,10.20
2023-09-19T11:04:52.551Z,9.07
2023-09-19T11:06:10.679Z,9.20
2023-09-19T11:07:16.067Z,10.60
2023-09-19T11:08:17.833Z,12.93
2023-09-19T11:09:23.607Z,7.90
2023-09-19T11:10:52.490Z,11.55
2023-09-19T11:11:54.956Z,11.48
2023-09-19T11:12:57.506Z,8.95
2023-09-19T11:14:30.721Z,7.25
2023-09-19T11:16:02.037Z,6.90
2023-09-19T11:17:06.738Z,10.18
2023-09-19T11:18:44.019Z,7.25
2023-09-19T11:20:15.758Z,7.70
2023-09-19T11:21:34.861Z,7.20
2023-09-19T11:22:51.956Z,7.75
2023-09-19T11:24:11.770Z,8.00
2023-09-19T11:25:32.131Z,12.63
2023-09-19T11:26:48.573Z,8.65
2023-09-19T11:28:09.904Z,7.45
2023-09-19T11:29:27.516Z,9.50
2023-09-19T11:30:31.527Z,6.95
2023-09-19T11:31:45.431Z,11.68
2023-09-19T11:33:25.263Z,8.00
2023-09-19T11:34:42.894Z,8.18
2023-09-19T11:36:01.071Z,6.70
2023-09-19T11:37:05.494Z,7.85
2023-09-19T11:38:07.945Z,7.05
2023-09-19T11:39:26.441Z,9.18
2023-09-19T11:40:29.440Z,6.95
2023-09-19T11:41:41.497Z,8.02
2023-09-19T11:42:55.278Z,8.68
2023-09-19T11:44:01.576Z,17.73
2023-09-19T11:45:03.315Z,10.43
2023-09-19T11:46:06.279Z,8.05
2023-09-19T11:47:11.169Z,7.35
2023-09-19T11:48:16.980Z,8.25
2023-09-19T11:49:22.555Z,7.63
2023-09-19T11:50:25.209Z,10.52
2023-09-19T11:51:30.396Z,11.55
2023-09-19T11:52:38.181Z,9.80
2023-09-19T11:53:42.888Z,10.95
2023-09-19T11:54:46.712Z,7.60
2023-09-19T11:55:48.907Z,10.00
2023-09-19T11:56:57.970Z,8.48
2023-09-19T11:58:00.353Z,9.38
2023-09-19T11:59:02.063Z,8.00
2023-09-19T12:00:05.890Z,7.63
2023-09-19T12:01:14.086Z,6.95
2023-09-19T12:02:37.065Z,9.00
2023-09-19T12:03:43.079Z,8.93
2023-09-19T12:04:49.287Z,7.03
2023-09-19T12:05:50.995Z,10.18
2023-09-19T12:07:01.582Z,8.77
2023-09-19T12:08:06.042Z,9.48
2023-09-19T12:09:17.343Z,12.48
2023-09-19T12:10:21.751Z,8.82
2023-09-19T12:11:24.411Z,9.90
2023-09-19T12:12:29.138Z,12.60
2023-09-19T12:13:32.787Z,9.52
2023-09-19T12:14:34.939Z,8.65
2023-09-19T12:15:39.852Z,10.52
2023-09-19T12:16:43.286Z,7.80
2023-09-19T12:17:45.866Z,7.75
2023-09-19T12:18:48.280Z,7.40
2023-09-19T12:19:57.209Z,8.07
2023-09-19T12:20:59.396Z,9.50
2023-09-19T12:22:05.767Z,7.85
2023-09-19T12:23:14.771Z,8.98
2023-09-19T12:24:17.510Z,8.55
2023-09-19T12:25:21.240Z,9.65
2023-09-19T12:26:25.358Z,10.95
2023-09-19T12:27:28.186Z,9.93
2023-09-19T12:28:33.475Z,8.40
2023-09-19T12:29:50.204Z,8.93
2023-09-19T12:30:52.489Z,9.85
2023-09-19T12:31:59.216Z,8.18
2023-09-19T12:33:00.970Z,9.50
2023-09-19T12:34:03.281Z,11.48
2023-09-19T12:35:11.734Z,12.70
2023-09-19T12:36:31.925Z,7.88
2023-09-19T12:37:37.307Z,10.32
2023-09-19T12:38:38.997Z,8.15
2023-09-19T12:39:42.294Z,8.98
2023-09-19T12:40:44.799Z,8.32
2023-09-19T12:41:48.637Z,8.77
2023-09-19T12:42:51.194Z,9.15
2023-09-19T12:43:55.568Z,7.80
2023-09-19T12:44:58.457Z,7.82
2023-09-19T12:46:01.114Z,9.82
2023-09-19T12:47:13.030Z,8.43
2023-09-19T12:48:32.811Z,9.65
2023-09-19T12:49:34.680Z,9.93
2023-09-19T12:50:36.385Z,8.60
2023-09-19T12:51:38.122Z,8.82
2023-09-19T12:52:41.757Z,9.00
2023-09-19T12:53:46.357Z,12.32
2023-09-19T12:54:48.640Z,14.43
2023-09-19T12:55:59.876Z,13.57
2023-09-19T12:57:01.500Z,16.70
2023-09-19T12:58:20.349Z,15.25
2023-09-19T12:59:32.074Z,10.88
2023-09-19T13:00:39.321Z,8.57
2023-09-19T13:01:49.470Z,21.63
2023-09-19T13:03:24.209Z,11.20
2023-09-19T13:04:30.761Z,10.35
2023-09-19T13:05:51.817Z,20.02
2023-09-19T13:06:54.071Z,36.20
2023-09-19T13:07:55.991Z,8.57
2023-09-19T13:09:13.041Z,14.55
2023-09-19T13:10:17.633Z,10.10
2023-09-19T13:11:19.878Z,9.93
2023-09-19T13:12:38.674Z,8.70
2023-09-19T13:13:51.103Z,10.27
2023-09-19T13:15:12.500Z,10.48
2023-09-19T13:16:23.566Z,14.45
2023-09-19T13:17:25.406Z,8.00
2023-09-19T13:18:28.104Z,8.65
2023-09-19T13:19:49.933Z,10.80
2023-09-19T13:21:23.313Z,12.65
2023-09-19T13:22:44.033Z,20.33
2023-09-19T13:23:46.102Z,9.50
2023-09-19T13:24:52.436Z,13.82
2023-09-19T13:25:54.000Z,9.07
2023-09-19T13:26:56.288Z,9.18
2023-09-19T13:27:58.916Z,9.70
2023-09-19T13:29:00.528Z,10.10
2023-09-19T13:30:02.162Z,14.23
2023-09-19T13:31:03.858Z,12.43
2023-09-19T13:32:05.962Z,10.32
2023-09-19T13:33:12.718Z,8.00
2023-09-19T13:34:16.875Z,12.57
2023-09-19T13:35:19.036Z,10.10
2023-09-19T13:36:20.876Z,13.63
2023-09-19T13:37:23.235Z,19.70
2023-09-19T13:38:24.975Z,8.77
2023-09-19T13:39:26.527Z,10.90
2023-09-19T13:40:31.937Z,10.02
2023-09-19T13:41:33.794Z,11.95
2023-09-19T13:42:37.487Z,9.27
2023-09-19T13:43:39.899Z,14.52
2023-09-19T13:44:44.600Z,14.00
2023-09-19T13:45:46.157Z,11.93
2023-09-19T13:46:48.389Z,12.57
2023-09-19T13:47:50.363Z,18.05
2023-09-19T13:48:55.807Z,9.77
2023-09-19T13:49:58.214Z,13.98
2023-09-19T13:50:59.801Z,10.43
2023-09-19T13:52:04.375Z,11.63
2023-09-19T13:53:06.030Z,11.95
2023-09-19T13:54:07.724Z,9.90
2023-09-19T13:55:09.832Z,12.48
2023-09-19T13:56:12.277Z,11.25
2023-09-19T13:57:14.086Z,10.35
2023-09-19T13:58:16.160Z,12.13
2023-09-19T13:59:17.752Z,13.02
2023-09-19T14:00:19.500Z,10.25
2023-09-19T14:01:21.585Z,11.38
2023-09-19T14:02:26.689Z,12.10
2023-09-19T14:03:29.648Z,10.80
2023-09-19T14:04:32.814Z,11.00
2023-09-19T14:05:34.472Z,10.30
2023-09-19T14:06:36.093Z,10.10
2023-09-19T14:07:37.958Z,9.77